Aérodrome :
LOGIN :

S'inscrire | Disclaimer

   EN    FR    IT 

 










Légende :    VFR   VFR Marginal   IFR   IFR Intensif   IFR Très Intensif
Visi : 
Plafond : 
>= 8 km
>= 3000ft
5 à 8 km
1000 à 3000 ft
1500m à 5 km
500 à 1000 ft
800 à 1500m
200 à 500 ft
< 800m
< 200 ft
Symboles :   Orages  Brouillard  Fortes neiges  Fortes précipitations  Vent > 20 kt
SIGMETs :   Divers  Orages  Givrage  Turbulence  Onde Orograph.  Cendres Volcan.







- Altitude de l'aérodrome : 788 ft
- Code IATA : DCM
- Voir les cartes d'approche


LFCK - Castres-Mazamet

DERNIER METAR :
  • 161900Z AUTO 22003KT 180V250 CAVOK 27/15 Q1015 NOSIG

METARs EXPIRÉS :
  • 161830Z AUTO 22005KT 200V260 CAVOK 28/15 Q1015 NOSIG
  • 161800Z AUTO 27006KT CAVOK 30/14 Q1015 NOSIG
  • 161730Z AUTO 25007KT CAVOK 30/13 Q1015 NOSIG
  • 161700Z AUTO 24006KT CAVOK 31/12 Q1015 NOSIG
  • 161630Z AUTO 27008KT 240V310 CAVOK 31/13 Q1015 NOSIG

TAF TAF LFCK
Valide du 16 à 18h jusqu'au 17 à 03h UTC


161700Z 1618/1703 24006KT CAVOK
BECMG 1700/1703 30010KT
Pas de NOTAMs connus pour ce terrain.



MET'MAP, la Météo Aéronautique d'un coup d'oeil ! - Copyright ORBIFLY Décembre 2007 - Disclaimer

ORBIFLY MET'MAP TEAM :

Programmation & Développement : Alexandra Zaïnal
Conception & Développement : Baudouin d'Aumeries
Co-Programmation & Développement : Marc-Olivier Méhu
Soutien technique & logistique : Manuel Goepfert

Contact : metmap@orbifly.com




SOURCES & CREDITS :

   NOAA